sensor_id;sensor_type;location;lat;lon;timestamp;temperature;humidity
7232;DHT22;3657;49.630;11.018;2023-07-20T00:00:30;23.30;68.60
7232;DHT22;3657;49.630;11.018;2023-07-20T00:03:10;23.30;69.30
7232;DHT22;3657;49.630;11.018;2023-07-20T00:05:38;23.20;68.90
7232;DHT22;3657;49.630;11.018;2023-07-20T00:08:05;23.20;69.10
7232;DHT22;3657;49.630;11.018;2023-07-20T00:10:32;23.20;69.20
7232;DHT22;3657;49.630;11.018;2023-07-20T00:13:00;23.10;69.20
7232;DHT22;3657;49.630;11.018;2023-07-20T00:15:27;23.10;69.30
7232;DHT22;3657;49.630;11.018;2023-07-20T00:17:54;23.10;69.30
7232;DHT22;3657;49.630;11.018;2023-07-20T00:20:23;23.10;69.90
7232;DHT22;3657;49.630;11.018;2023-07-20T00:22:50;23.10;69.40
7232;DHT22;3657;49.630;11.018;2023-07-20T00:25:17;23.10;69.40
7232;DHT22;3657;49.630;11.018;2023-07-20T00:27:44;23.00;69.40
7232;DHT22;3657;49.630;11.018;2023-07-20T00:30:13;23.00;69.30
7232;DHT22;3657;49.630;11.018;2023-07-20T00:32:41;23.00;69.40
7232;DHT22;3657;49.630;11.018;2023-07-20T00:35:08;23.10;69.80
7232;DHT22;3657;49.630;11.018;2023-07-20T00:37:36;22.90;69.70
7232;DHT22;3657;49.630;11.018;2023-07-20T00:40:04;23.00;70.00
7232;DHT22;3657;49.630;11.018;2023-07-20T00:42:33;22.90;70.40
7232;DHT22;3657;49.630;11.018;2023-07-20T00:45:00;22.90;70.00
7232;DHT22;3657;49.630;11.018;2023-07-20T00:47:28;22.80;70.30
7232;DHT22;3657;49.630;11.018;2023-07-20T00:49:55;22.80;69.90
7232;DHT22;3657;49.630;11.018;2023-07-20T00:52:23;22.80;69.90
7232;DHT22;3657;49.630;11.018;2023-07-20T00:54:52;22.70;69.90
7232;DHT22;3657;49.630;11.018;2023-07-20T00:57:22;22.80;70.00
7232;DHT22;3657;49.630;11.018;2023-07-20T00:59:50;22.60;69.80
7232;DHT22;3657;49.630;11.018;2023-07-20T01:02:17;22.70;69.90
7232;DHT22;3657;49.630;11.018;2023-07-20T01:04:45;22.70;70.80
7232;DHT22;3657;49.630;11.018;2023-07-20T01:07:17;22.60;70.30
7232;DHT22;3657;49.630;11.018;2023-07-20T01:09:52;22.60;70.30
7232;DHT22;3657;49.630;11.018;2023-07-20T01:12:25;22.60;70.30
7232;DHT22;3657;49.630;11.018;2023-07-20T01:14:53;22.60;70.40
7232;DHT22;3657;49.630;11.018;2023-07-20T01:17:20;22.60;70.40
7232;DHT22;3657;49.630;11.018;2023-07-20T01:19:49;22.60;70.50
7232;DHT22;3657;49.630;11.018;2023-07-20T01:22:26;22.40;70.40
7232;DHT22;3657;49.630;11.018;2023-07-20T01:25:11;22.50;70.60
7232;DHT22;3657;49.630;11.018;2023-07-20T01:33:34;22.40;70.80
7232;DHT22;3657;49.630;11.018;2023-07-20T01:36:03;22.40;71.10
7232;DHT22;3657;49.630;11.018;2023-07-20T01:38:30;22.40;71.20
7232;DHT22;3657;49.630;11.018;2023-07-20T01:40:57;22.30;71.10
7232;DHT22;3657;49.630;11.018;2023-07-20T01:43:24;22.40;71.20
7232;DHT22;3657;49.630;11.018;2023-07-20T01:45:51;22.30;71.10
7232;DHT22;3657;49.630;11.018;2023-07-20T01:48:18;22.30;71.10
7232;DHT22;3657;49.630;11.018;2023-07-20T01:50:46;22.30;71.20
7232;DHT22;3657;49.630;11.018;2023-07-20T01:53:13;22.20;71.20
7232;DHT22;3657;49.630;11.018;2023-07-20T01:55:40;22.20;71.10
7232;DHT22;3657;49.630;11.018;2023-07-20T01:58:15;22.30;71.30
7232;DHT22;3657;49.630;11.018;2023-07-20T02:00:42;22.20;71.30
7232;DHT22;3657;49.630;11.018;2023-07-20T02:03:09;22.20;71.30
7232;DHT22;3657;49.630;11.018;2023-07-20T02:05:37;22.10;71.90
7232;DHT22;3657;49.630;11.018;2023-07-20T02:08:05;22.20;71.60
7232;DHT22;3657;49.630;11.018;2023-07-20T02:10:32;22.10;71.40
7232;DHT22;3657;49.630;11.018;2023-07-20T02:13:01;22.10;72.00
7232;DHT22;3657;49.630;11.018;2023-07-20T02:15:29;22.10;71.90
7232;DHT22;3657;49.630;11.018;2023-07-20T02:17:56;22.10;71.90
7232;DHT22;3657;49.630;11.018;2023-07-20T02:20:23;22.00;72.00
7232;DHT22;3657;49.630;11.018;2023-07-20T02:22:57;22.00;72.30
7232;DHT22;3657;49.630;11.018;2023-07-20T02:25:25;22.00;72.30
7232;DHT22;3657;49.630;11.018;2023-07-20T02:27:52;21.90;72.40
7232;DHT22;3657;49.630;11.018;2023-07-20T02:30:19;22.00;72.60
7232;DHT22;3657;49.630;11.018;2023-07-20T02:32:46;22.00;72.70
7232;DHT22;3657;49.630;11.018;2023-07-20T02:35:14;21.90;72.60
7232;DHT22;3657;49.630;11.018;2023-07-20T02:37:40;21.90;72.80
7232;DHT22;3657;49.630;11.018;2023-07-20T02:40:08;21.90;72.90
7232;DHT22;3657;49.630;11.018;2023-07-20T02:42:36;21.90;73.00
7232;DHT22;3657;49.630;11.018;2023-07-20T02:45:04;21.90;73.10
7232;DHT22;3657;49.630;11.018;2023-07-20T02:47:31;21.90;73.40
7232;DHT22;3657;49.630;11.018;2023-07-20T02:49:58;21.80;73.60
7232;DHT22;3657;49.630;11.018;2023-07-20T02:52:25;21.80;73.70
7232;DHT22;3657;49.630;11.018;2023-07-20T02:54:52;21.80;73.70
7232;DHT22;3657;49.630;11.018;2023-07-20T02:57:18;21.80;73.70
7232;DHT22;3657;49.630;11.018;2023-07-20T02:59:47;21.70;73.80
7232;DHT22;3657;49.630;11.018;2023-07-20T03:02:13;21.70;74.00
7232;DHT22;3657;49.630;11.018;2023-07-20T03:04:40;21.70;74.00
7232;DHT22;3657;49.630;11.018;2023-07-20T03:07:07;21.70;74.00
7232;DHT22;3657;49.630;11.018;2023-07-20T03:09:33;21.70;74.10
7232;DHT22;3657;49.630;11.018;2023-07-20T03:12:00;21.70;74.20
7232;DHT22;3657;49.630;11.018;2023-07-20T03:14:29;21.60;74.20
7232;DHT22;3657;49.630;11.018;2023-07-20T03:16:57;21.60;74.30
7232;DHT22;3657;49.630;11.018;2023-07-20T03:19:24;21.60;74.10
7232;DHT22;3657;49.630;11.018;2023-07-20T03:21:50;21.60;74.20
7232;DHT22;3657;49.630;11.018;2023-07-20T03:24:17;21.50;74.40
7232;DHT22;3657;49.630;11.018;2023-07-20T03:26:44;21.60;74.50
7232;DHT22;3657;49.630;11.018;2023-07-20T03:29:10;21.50;74.40
7232;DHT22;3657;49.630;11.018;2023-07-20T03:31:37;21.50;74.40
7232;DHT22;3657;49.630;11.018;2023-07-20T03:34:05;21.50;74.50
7232;DHT22;3657;49.630;11.018;2023-07-20T03:36:34;21.50;74.60
7232;DHT22;3657;49.630;11.018;2023-07-20T03:39:00;21.50;74.60
7232;DHT22;3657;49.630;11.018;2023-07-20T03:41:28;21.40;74.60
7232;DHT22;3657;49.630;11.018;2023-07-20T03:43:54;21.40;74.70
7232;DHT22;3657;49.630;11.018;2023-07-20T03:46:21;21.40;74.80
7232;DHT22;3657;49.630;11.018;2023-07-20T03:48:48;21.40;75.00
7232;DHT22;3657;49.630;11.018;2023-07-20T03:51:16;21.30;74.90
7232;DHT22;3657;49.630;11.018;2023-07-20T03:53:43;21.40;75.20
7232;DHT22;3657;49.630;11.018;2023-07-20T03:56:09;21.30;75.10
7232;DHT22;3657;49.630;11.018;2023-07-20T03:58:36;21.30;75.10
7232;DHT22;3657;49.630;11.018;2023-07-20T04:01:03;21.30;75.10
7232;DHT22;3657;49.630;11.018;2023-07-20T04:03:29;21.30;75.10
7232;DHT22;3657;49.630;11.018;2023-07-20T04:05:56;21.30;75.20
7232;DHT22;3657;49.630;11.018;2023-07-20T04:08:25;21.30;75.20
7232;DHT22;3657;49.630;11.018;2023-07-20T04:10:51;21.30;75.10
7232;DHT22;3657;49.630;11.018;2023-07-20T04:13:18;21.30;75.20
7232;DHT22;3657;49.630;11.018;2023-07-20T04:15:45;21.20;75.20
7232;DHT22;3657;49.630;11.018;2023-07-20T04:18:12;21.30;75.30
7232;DHT22;3657;49.630;11.018;2023-07-20T04:20:39;21.20;76.10
7232;DHT22;3657;49.630;11.018;2023-07-20T04:23:05;21.20;77.00
7232;DHT22;3657;49.630;11.018;2023-07-20T04:25:33;21.20;76.80
7232;DHT22;3657;49.630;11.018;2023-07-20T04:28:04;21.20;76.80
7232;DHT22;3657;49.630;11.018;2023-07-20T04:30:34;21.20;76.70
7232;DHT22;3657;49.630;11.018;2023-07-20T04:33:01;21.20;77.10
7232;DHT22;3657;49.630;11.018;2023-07-20T04:35:49;21.20;77.10
7232;DHT22;3657;49.630;11.018;2023-07-20T04:38:16;21.20;77.10
7232;DHT22;3657;49.630;11.018;2023-07-20T04:40:46;21.20;77.00
7232;DHT22;3657;49.630;11.018;2023-07-20T04:43:13;21.20;77.10
7232;DHT22;3657;49.630;11.018;2023-07-20T04:45:40;21.20;77.00
7232;DHT22;3657;49.630;11.018;2023-07-20T04:48:09;21.20;76.90
7232;DHT22;3657;49.630;11.018;2023-07-20T04:50:37;21.20;77.00
7232;DHT22;3657;49.630;11.018;2023-07-20T04:53:03;21.20;77.00
7232;DHT22;3657;49.630;11.018;2023-07-20T04:55:30;21.20;77.10
7232;DHT22;3657;49.630;11.018;2023-07-20T04:58:00;21.20;77.10
7232;DHT22;3657;49.630;11.018;2023-07-20T05:00:28;21.20;78.40
7232;DHT22;3657;49.630;11.018;2023-07-20T05:02:54;21.20;77.10
7232;DHT22;3657;49.630;11.018;2023-07-20T05:05:21;21.20;77.00
7232;DHT22;3657;49.630;11.018;2023-07-20T05:07:48;21.20;80.10
7232;DHT22;3657;49.630;11.018;2023-07-20T05:10:15;21.20;77.40
7232;DHT22;3657;49.630;11.018;2023-07-20T05:12:42;21.20;77.40
7232;DHT22;3657;49.630;11.018;2023-07-20T05:15:10;21.20;77.40
7232;DHT22;3657;49.630;11.018;2023-07-20T05:17:38;21.10;79.90
7232;DHT22;3657;49.630;11.018;2023-07-20T05:20:06;21.20;78.50
7232;DHT22;3657;49.630;11.018;2023-07-20T05:22:35;21.20;80.60
7232;DHT22;3657;49.630;11.018;2023-07-20T05:25:02;21.30;78.10
7232;DHT22;3657;49.630;11.018;2023-07-20T05:27:29;21.40;78.70
7232;DHT22;3657;49.630;11.018;2023-07-20T05:29:55;21.30;81.20
7232;DHT22;3657;49.630;11.018;2023-07-20T05:32:23;21.30;82.80
7232;DHT22;3657;49.630;11.018;2023-07-20T05:34:52;21.30;80.40
7232;DHT22;3657;49.630;11.018;2023-07-20T05:37:19;21.40;82.30
7232;DHT22;3657;49.630;11.018;2023-07-20T05:39:46;21.30;82.70
7232;DHT22;3657;49.630;11.018;2023-07-20T05:42:13;21.30;80.20
7232;DHT22;3657;49.630;11.018;2023-07-20T05:44:40;21.30;80.50
7232;DHT22;3657;49.630;11.018;2023-07-20T05:47:07;21.40;79.90
7232;DHT22;3657;49.630;11.018;2023-07-20T05:49:35;21.50;79.60
7232;DHT22;3657;49.630;11.018;2023-07-20T05:52:02;21.60;82.30
7232;DHT22;3657;49.630;11.018;2023-07-20T05:54:29;21.70;78.80
7232;DHT22;3657;49.630;11.018;2023-07-20T05:56:56;21.90;80.10
7232;DHT22;3657;49.630;11.018;2023-07-20T05:59:23;22.20;77.00
7232;DHT22;3657;49.630;11.018;2023-07-20T06:01:50;22.40;76.90
7232;DHT22;3657;49.630;11.018;2023-07-20T06:04:17;22.60;78.70
7232;DHT22;3657;49.630;11.018;2023-07-20T06:06:45;22.70;76.20
7232;DHT22;3657;49.630;11.018;2023-07-20T06:09:12;23.00;75.00
7232;DHT22;3657;49.630;11.018;2023-07-20T06:11:38;23.10;75.20
7232;DHT22;3657;49.630;11.018;2023-07-20T06:14:05;23.20;74.20
7232;DHT22;3657;49.630;11.018;2023-07-20T06:16:32;23.30;75.00
7232;DHT22;3657;49.630;11.018;2023-07-20T06:18:59;23.40;73.40
7232;DHT22;3657;49.630;11.018;2023-07-20T06:21:26;23.50;75.80
7232;DHT22;3657;49.630;11.018;2023-07-20T06:23:54;23.60;73.40
7232;DHT22;3657;49.630;11.018;2023-07-20T06:26:21;23.70;75.20
7232;DHT22;3657;49.630;11.018;2023-07-20T06:28:48;23.80;74.90
7232;DHT22;3657;49.630;11.018;2023-07-20T06:31:14;23.80;74.00
7232;DHT22;3657;49.630;11.018;2023-07-20T06:33:41;23.90;74.30
7232;DHT22;3657;49.630;11.018;2023-07-20T06:36:08;23.90;74.60
7232;DHT22;3657;49.630;11.018;2023-07-20T06:38:34;23.90;74.90
7232;DHT22;3657;49.630;11.018;2023-07-20T06:41:03;24.10;74.70
7232;DHT22;3657;49.630;11.018;2023-07-20T06:43:29;24.30;74.20
7232;DHT22;3657;49.630;11.018;2023-07-20T06:45:56;24.30;73.60
7232;DHT22;3657;49.630;11.018;2023-07-20T06:48:23;24.40;74.00
7232;DHT22;3657;49.630;11.018;2023-07-20T06:50:49;24.30;72.90
7232;DHT22;3657;49.630;11.018;2023-07-20T06:53:16;24.60;74.70
7232;DHT22;3657;49.630;11.018;2023-07-20T06:55:43;24.90;73.40
7232;DHT22;3657;49.630;11.018;2023-07-20T06:58:11;25.10;74.60
7232;DHT22;3657;49.630;11.018;2023-07-20T07:00:38;25.30;74.10
7232;DHT22;3657;49.630;11.018;2023-07-20T07:03:05;25.40;73.30
7232;DHT22;3657;49.630;11.018;2023-07-20T07:05:35;25.40;70.40
7232;DHT22;3657;49.630;11.018;2023-07-20T07:08:03;25.40;72.40
7232;DHT22;3657;49.630;11.018;2023-07-20T07:10:30;25.60;72.70
7232;DHT22;3657;49.630;11.018;2023-07-20T07:12:57;25.80;72.80
7232;DHT22;3657;49.630;11.018;2023-07-20T07:15:25;26.10;72.50
7232;DHT22;3657;49.630;11.018;2023-07-20T07:17:52;26.20;70.30
7232;DHT22;3657;49.630;11.018;2023-07-20T07:20:18;25.90;71.70
7232;DHT22;3657;49.630;11.018;2023-07-20T07:22:45;25.90;71.80
7232;DHT22;3657;49.630;11.018;2023-07-20T07:25:12;25.80;72.70
7232;DHT22;3657;49.630;11.018;2023-07-20T07:27:40;25.90;72.80
7232;DHT22;3657;49.630;11.018;2023-07-20T07:30:07;26.20;71.40
7232;DHT22;3657;49.630;11.018;2023-07-20T07:32:38;26.30;71.60
7232;DHT22;3657;49.630;11.018;2023-07-20T07:35:05;26.10;70.40
7232;DHT22;3657;49.630;11.018;2023-07-20T07:37:32;25.50;72.00
7232;DHT22;3657;49.630;11.018;2023-07-20T07:39:59;25.70;71.50
7232;DHT22;3657;49.630;11.018;2023-07-20T07:42:25;25.60;69.00
7232;DHT22;3657;49.630;11.018;2023-07-20T07:44:52;26.00;72.20
7232;DHT22;3657;49.630;11.018;2023-07-20T07:47:20;26.30;72.20
7232;DHT22;3657;49.630;11.018;2023-07-20T07:49:48;26.50;71.10
7232;DHT22;3657;49.630;11.018;2023-07-20T07:52:15;26.60;68.80
7232;DHT22;3657;49.630;11.018;2023-07-20T07:54:42;26.50;67.40
7232;DHT22;3657;49.630;11.018;2023-07-20T07:57:08;26.80;69.70
7232;DHT22;3657;49.630;11.018;2023-07-20T07:59:35;27.20;69.60
7232;DHT22;3657;49.630;11.018;2023-07-20T08:02:04;26.80;68.00
7232;DHT22;3657;49.630;11.018;2023-07-20T08:04:31;27.10;68.00
7232;DHT22;3657;49.630;11.018;2023-07-20T08:06:59;27.30;67.20
7232;DHT22;3657;49.630;11.018;2023-07-20T08:09:26;27.60;67.90
7232;DHT22;3657;49.630;11.018;2023-07-20T08:11:53;27.30;68.10
7232;DHT22;3657;49.630;11.018;2023-07-20T08:14:19;27.50;67.40
7232;DHT22;3657;49.630;11.018;2023-07-20T08:16:46;27.60;66.20
7232;DHT22;3657;49.630;11.018;2023-07-20T08:19:13;27.70;64.80
7232;DHT22;3657;49.630;11.018;2023-07-20T08:21:40;27.40;68.10
7232;DHT22;3657;49.630;11.018;2023-07-20T08:24:08;27.30;68.80
7232;DHT22;3657;49.630;11.018;2023-07-20T08:26:35;26.70;67.70
7232;DHT22;3657;49.630;11.018;2023-07-20T08:29:02;26.60;68.90
7232;DHT22;3657;49.630;11.018;2023-07-20T08:31:29;26.80;63.00
7232;DHT22;3657;49.630;11.018;2023-07-20T08:33:55;26.80;68.90
7232;DHT22;3657;49.630;11.018;2023-07-20T08:36:22;27.30;65.80
7232;DHT22;3657;49.630;11.018;2023-07-20T08:38:49;27.70;62.90
7232;DHT22;3657;49.630;11.018;2023-07-20T08:41:18;28.00;63.60
7232;DHT22;3657;49.630;11.018;2023-07-20T08:43:46;28.30;61.70
7232;DHT22;3657;49.630;11.018;2023-07-20T08:46:51;28.20;64.20
7232;DHT22;3657;49.630;11.018;2023-07-20T08:49:19;28.40;63.20
7232;DHT22;3657;49.630;11.018;2023-07-20T08:51:46;28.70;59.90
7232;DHT22;3657;49.630;11.018;2023-07-20T08:54:16;28.90;61.30
7232;DHT22;3657;49.630;11.018;2023-07-20T08:56:45;28.70;59.10
7232;DHT22;3657;49.630;11.018;2023-07-20T08:59:13;28.50;63.20
7232;DHT22;3657;49.630;11.018;2023-07-20T09:01:41;28.60;59.50
7232;DHT22;3657;49.630;11.018;2023-07-20T09:04:08;28.90;61.30
7232;DHT22;3657;49.630;11.018;2023-07-20T09:06:35;29.00;62.40
7232;DHT22;3657;49.630;11.018;2023-07-20T09:09:02;29.10;63.10
7232;DHT22;3657;49.630;11.018;2023-07-20T09:11:29;28.90;61.90
7232;DHT22;3657;49.630;11.018;2023-07-20T09:14:07;29.10;62.30
7232;DHT22;3657;49.630;11.018;2023-07-20T09:16:47;29.50;60.60
7232;DHT22;3657;49.630;11.018;2023-07-20T09:19:15;29.40;62.60
7232;DHT22;3657;49.630;11.018;2023-07-20T09:21:44;29.20;63.20
7232;DHT22;3657;49.630;11.018;2023-07-20T09:24:11;29.20;62.10
7232;DHT22;3657;49.630;11.018;2023-07-20T09:26:41;28.60;62.70
7232;DHT22;3657;49.630;11.018;2023-07-20T09:29:10;28.50;64.00
7232;DHT22;3657;49.630;11.018;2023-07-20T09:31:37;28.30;64.30
7232;DHT22;3657;49.630;11.018;2023-07-20T09:34:05;28.30;64.30
7232;DHT22;3657;49.630;11.018;2023-07-20T09:36:33;28.30;60.80
7232;DHT22;3657;49.630;11.018;2023-07-20T09:39:00;28.20;62.60
7232;DHT22;3657;49.630;11.018;2023-07-20T09:41:27;28.00;63.40
7232;DHT22;3657;49.630;11.018;2023-07-20T09:43:54;28.20;61.80
7232;DHT22;3657;49.630;11.018;2023-07-20T09:46:22;28.80;61.60
7232;DHT22;3657;49.630;11.018;2023-07-20T09:48:52;29.40;60.00
7232;DHT22;3657;49.630;11.018;2023-07-20T09:51:22;29.50;61.40
7232;DHT22;3657;49.630;11.018;2023-07-20T09:53:49;29.90;60.80
7232;DHT22;3657;49.630;11.018;2023-07-20T09:56:17;29.50;60.10
7232;DHT22;3657;49.630;11.018;2023-07-20T09:58:45;29.30;59.80
7232;DHT22;3657;49.630;11.018;2023-07-20T10:01:16;29.10;60.00
7232;DHT22;3657;49.630;11.018;2023-07-20T10:03:46;28.90;60.40
7232;DHT22;3657;49.630;11.018;2023-07-20T10:06:15;28.60;58.70
7232;DHT22;3657;49.630;11.018;2023-07-20T10:08:47;29.00;61.20
7232;DHT22;3657;49.630;11.018;2023-07-20T10:11:15;29.50;60.00
7232;DHT22;3657;49.630;11.018;2023-07-20T10:13:44;29.90;58.30
7232;DHT22;3657;49.630;11.018;2023-07-20T10:16:13;30.20;58.10
7232;DHT22;3657;49.630;11.018;2023-07-20T10:18:49;30.40;58.50
7232;DHT22;3657;49.630;11.018;2023-07-20T10:21:20;30.40;57.80
7232;DHT22;3657;49.630;11.018;2023-07-20T10:23:48;30.30;55.40
7232;DHT22;3657;49.630;11.018;2023-07-20T10:26:18;30.50;57.70
7232;DHT22;3657;49.630;11.018;2023-07-20T10:28:47;30.70;55.30
7232;DHT22;3657;49.630;11.018;2023-07-20T10:31:15;30.40;54.80
7232;DHT22;3657;49.630;11.018;2023-07-20T10:33:43;30.20;58.20
7232;DHT22;3657;49.630;11.018;2023-07-20T10:36:11;30.00;57.30
7232;DHT22;3657;49.630;11.018;2023-07-20T10:38:39;30.10;57.80
7232;DHT22;3657;49.630;11.018;2023-07-20T10:41:16;30.20;56.30
7232;DHT22;3657;49.630;11.018;2023-07-20T10:43:44;30.10;57.00
7232;DHT22;3657;49.630;11.018;2023-07-20T10:46:11;29.80;56.80
7232;DHT22;3657;49.630;11.018;2023-07-20T10:48:59;29.60;57.40
7232;DHT22;3657;49.630;11.018;2023-07-20T10:51:27;29.50;55.00
7232;DHT22;3657;49.630;11.018;2023-07-20T10:53:55;29.80;57.80
7232;DHT22;3657;49.630;11.018;2023-07-20T10:56:26;30.20;57.10
7232;DHT22;3657;49.630;11.018;2023-07-20T10:58:56;30.30;53.40
7232;DHT22;3657;49.630;11.018;2023-07-20T11:01:27;30.30;53.80
7232;DHT22;3657;49.630;11.018;2023-07-20T11:03:57;30.30;56.30
7232;DHT22;3657;49.630;11.018;2023-07-20T11:06:33;30.50;56.40
7232;DHT22;3657;49.630;11.018;2023-07-20T11:09:05;30.50;56.00
7232;DHT22;3657;49.630;11.018;2023-07-20T11:11:34;30.30;55.90
7232;DHT22;3657;49.630;11.018;2023-07-20T11:14:02;30.30;55.90
7232;DHT22;3657;49.630;11.018;2023-07-20T11:16:40;30.00;55.30
7232;DHT22;3657;49.630;11.018;2023-07-20T11:19:14;30.30;57.30
7232;DHT22;3657;49.630;11.018;2023-07-20T11:21:44;30.10;55.00
7232;DHT22;3657;49.630;11.018;2023-07-20T11:24:11;29.90;55.30
7232;DHT22;3657;49.630;11.018;2023-07-20T11:26:42;29.90;56.90
7232;DHT22;3657;49.630;11.018;2023-07-20T11:29:10;30.00;55.90
7232;DHT22;3657;49.630;11.018;2023-07-20T11:31:38;30.00;54.50
7232;DHT22;3657;49.630;11.018;2023-07-20T11:34:05;30.00;57.20
7232;DHT22;3657;49.630;11.018;2023-07-20T11:36:32;30.20;55.80
7232;DHT22;3657;49.630;11.018;2023-07-20T11:39:01;30.40;55.70
7232;DHT22;3657;49.630;11.018;2023-07-20T11:41:30;30.50;56.30
7232;DHT22;3657;49.630;11.018;2023-07-20T11:43:57;30.50;53.60
7232;DHT22;3657;49.630;11.018;2023-07-20T11:46:24;30.60;55.40
7232;DHT22;3657;49.630;11.018;2023-07-20T11:48:56;30.50;54.90
7232;DHT22;3657;49.630;11.018;2023-07-20T11:51:24;30.40;54.70
7232;DHT22;3657;49.630;11.018;2023-07-20T11:53:51;30.30;54.60
7232;DHT22;3657;49.630;11.018;2023-07-20T11:56:19;30.20;54.40
7232;DHT22;3657;49.630;11.018;2023-07-20T11:58:46;30.00;54.20
7232;DHT22;3657;49.630;11.018;2023-07-20T12:01:13;29.80;53.80
7232;DHT22;3657;49.630;11.018;2023-07-20T12:03:41;29.50;53.50
7232;DHT22;3657;49.630;11.018;2023-07-20T12:06:08;29.40;53.70
7232;DHT22;3657;49.630;11.018;2023-07-20T12:08:38;29.30;53.70
7232;DHT22;3657;49.630;11.018;2023-07-20T12:11:05;29.20;53.30
7232;DHT22;3657;49.630;11.018;2023-07-20T12:13:42;29.20;52.70
7232;DHT22;3657;49.630;11.018;2023-07-20T12:16:10;29.10;53.00
7232;DHT22;3657;49.630;11.018;2023-07-20T12:18:38;29.20;53.10
7232;DHT22;3657;49.630;11.018;2023-07-20T12:21:06;29.10;52.90
7232;DHT22;3657;49.630;11.018;2023-07-20T12:23:37;29.10;52.70
7232;DHT22;3657;49.630;11.018;2023-07-20T12:26:06;29.10;52.90
7232;DHT22;3657;49.630;11.018;2023-07-20T12:28:33;29.00;52.90
7232;DHT22;3657;49.630;11.018;2023-07-20T12:31:03;29.10;53.20
7232;DHT22;3657;49.630;11.018;2023-07-20T12:33:30;29.10;52.50
7232;DHT22;3657;49.630;11.018;2023-07-20T12:35:56;29.10;53.20
7232;DHT22;3657;49.630;11.018;2023-07-20T12:38:24;29.10;52.60
7232;DHT22;3657;49.630;11.018;2023-07-20T12:40:52;29.10;52.60
7232;DHT22;3657;49.630;11.018;2023-07-20T12:43:20;29.10;52.40
7232;DHT22;3657;49.630;11.018;2023-07-20T12:45:47;29.00;52.30
7232;DHT22;3657;49.630;11.018;2023-07-20T12:48:15;29.10;53.00
7232;DHT22;3657;49.630;11.018;2023-07-20T12:50:41;29.20;52.80
7232;DHT22;3657;49.630;11.018;2023-07-20T12:53:08;29.30;52.80
7232;DHT22;3657;49.630;11.018;2023-07-20T12:55:35;29.40;52.60
7232;DHT22;3657;49.630;11.018;2023-07-20T12:58:02;29.50;52.30
7232;DHT22;3657;49.630;11.018;2023-07-20T13:00:28;29.50;51.90
7232;DHT22;3657;49.630;11.018;2023-07-20T13:02:55;29.40;52.10
7232;DHT22;3657;49.630;11.018;2023-07-20T13:05:23;29.40;52.40
7232;DHT22;3657;49.630;11.018;2023-07-20T13:07:50;29.50;52.30
7232;DHT22;3657;49.630;11.018;2023-07-20T13:10:17;29.70;52.30
7232;DHT22;3657;49.630;11.018;2023-07-20T13:12:44;29.80;52.10
7232;DHT22;3657;49.630;11.018;2023-07-20T13:15:11;29.70;51.40
7232;DHT22;3657;49.630;11.018;2023-07-20T13:17:38;29.40;50.60
7232;DHT22;3657;49.630;11.018;2023-07-20T13:20:07;29.30;50.80
7232;DHT22;3657;49.630;11.018;2023-07-20T13:22:37;29.40;51.50
7232;DHT22;3657;49.630;11.018;2023-07-20T13:25:04;29.30;51.00
7232;DHT22;3657;49.630;11.018;2023-07-20T13:27:31;29.40;50.90
7232;DHT22;3657;49.630;11.018;2023-07-20T13:29:58;29.40;51.20
7232;DHT22;3657;49.630;11.018;2023-07-20T13:32:26;29.30;50.40
7232;DHT22;3657;49.630;11.018;2023-07-20T13:34:53;29.10;50.50
7232;DHT22;3657;49.630;11.018;2023-07-20T13:37:19;29.00;50.70
7232;DHT22;3657;49.630;11.018;2023-07-20T13:39:48;29.00;50.80
7232;DHT22;3657;49.630;11.018;2023-07-20T13:42:15;29.10;51.40
7232;DHT22;3657;49.630;11.018;2023-07-20T13:44:42;29.30;50.80
7232;DHT22;3657;49.630;11.018;2023-07-20T13:47:09;29.40;50.30
7232;DHT22;3657;49.630;11.018;2023-07-20T13:49:36;29.30;50.10
7232;DHT22;3657;49.630;11.018;2023-07-20T13:52:04;29.30;50.00
7232;DHT22;3657;49.630;11.018;2023-07-20T13:54:31;29.30;50.10
7232;DHT22;3657;49.630;11.018;2023-07-20T13:56:59;29.40;50.30
7232;DHT22;3657;49.630;11.018;2023-07-20T13:59:25;29.50;50.40
7232;DHT22;3657;49.630;11.018;2023-07-20T14:01:52;29.60;50.40
7232;DHT22;3657;49.630;11.018;2023-07-20T14:04:18;29.70;50.10
7232;DHT22;3657;49.630;11.018;2023-07-20T14:06:45;29.70;50.30
7232;DHT22;3657;49.630;11.018;2023-07-20T14:09:12;29.80;50.10
7232;DHT22;3657;49.630;11.018;2023-07-20T14:11:39;29.70;50.20
7232;DHT22;3657;49.630;11.018;2023-07-20T14:14:07;29.70;50.20
7232;DHT22;3657;49.630;11.018;2023-07-20T14:16:34;29.70;50.30
7232;DHT22;3657;49.630;11.018;2023-07-20T14:19:01;29.70;50.30
7232;DHT22;3657;49.630;11.018;2023-07-20T14:21:30;29.70;49.40
7232;DHT22;3657;49.630;11.018;2023-07-20T14:23:57;29.70;50.10
7232;DHT22;3657;49.630;11.018;2023-07-20T14:26:24;29.70;49.80
7232;DHT22;3657;49.630;11.018;2023-07-20T14:28:51;29.70;50.00
7232;DHT22;3657;49.630;11.018;2023-07-20T14:31:19;29.70;49.80
7232;DHT22;3657;49.630;11.018;2023-07-20T14:33:46;29.70;49.90
7232;DHT22;3657;49.630;11.018;2023-07-20T14:36:12;29.80;49.40
7232;DHT22;3657;49.630;11.018;2023-07-20T14:38:39;29.80;49.70
7232;DHT22;3657;49.630;11.018;2023-07-20T14:41:06;29.90;49.40
7232;DHT22;3657;49.630;11.018;2023-07-20T14:43:33;29.80;49.50
7232;DHT22;3657;49.630;11.018;2023-07-20T14:46:00;29.80;49.40
7232;DHT22;3657;49.630;11.018;2023-07-20T14:48:28;29.90;48.90
7232;DHT22;3657;49.630;11.018;2023-07-20T14:50:54;30.00;49.00
7232;DHT22;3657;49.630;11.018;2023-07-20T14:53:21;30.00;49.50
7232;DHT22;3657;49.630;11.018;2023-07-20T14:55:48;30.00;49.30
7232;DHT22;3657;49.630;11.018;2023-07-20T14:58:14;30.00;49.40
7232;DHT22;3657;49.630;11.018;2023-07-20T15:00:41;29.90;49.40
7232;DHT22;3657;49.630;11.018;2023-07-20T15:03:08;29.90;48.80
7232;DHT22;3657;49.630;11.018;2023-07-20T15:05:36;29.80;49.30
7232;DHT22;3657;49.630;11.018;2023-07-20T15:08:03;29.80;49.20
7232;DHT22;3657;49.630;11.018;2023-07-20T15:10:31;29.90;48.20
7232;DHT22;3657;49.630;11.018;2023-07-20T15:12:58;29.80;49.30
7232;DHT22;3657;49.630;11.018;2023-07-20T15:15:25;29.80;49.10
7232;DHT22;3657;49.630;11.018;2023-07-20T15:17:51;29.90;49.10
7232;DHT22;3657;49.630;11.018;2023-07-20T15:20:19;29.80;48.90
7232;DHT22;3657;49.630;11.018;2023-07-20T15:22:47;29.70;49.00
7232;DHT22;3657;49.630;11.018;2023-07-20T15:25:14;29.60;49.00
7232;DHT22;3657;49.630;11.018;2023-07-20T15:27:40;29.70;49.10
7232;DHT22;3657;49.630;11.018;2023-07-20T15:30:09;29.60;48.60
7232;DHT22;3657;49.630;11.018;2023-07-20T15:32:36;29.70;49.00
7232;DHT22;3657;49.630;11.018;2023-07-20T15:35:03;29.70;49.00
7232;DHT22;3657;49.630;11.018;2023-07-20T15:37:31;29.70;49.00
7232;DHT22;3657;49.630;11.018;2023-07-20T15:39:59;29.70;48.80
7232;DHT22;3657;49.630;11.018;2023-07-20T15:42:29;29.60;49.00
7232;DHT22;3657;49.630;11.018;2023-07-20T15:44:56;29.60;48.90
7232;DHT22;3657;49.630;11.018;2023-07-20T15:47:23;29.50;48.90
7232;DHT22;3657;49.630;11.018;2023-07-20T15:49:50;29.50;49.10
7232;DHT22;3657;49.630;11.018;2023-07-20T15:52:16;29.40;47.50
7232;DHT22;3657;49.630;11.018;2023-07-20T15:54:44;29.40;49.10